Time;durP1;ratioP1;P1;durP2;ratioP2;P2;SDS_P1;SDS_P2;PMS_P1;PMS_P2;Temp;Humidity;BMP_temperature;BMP_pressure;BME280_temperature;BME280_humidity;BME280_pressure;Samples;Min_cycle;Max_cycle;Signal;HPM_P1;HPM_P2
2020/12/29 00:01:43;;;;;;;5.20;1.90;;;1.40;99.90;;;-0.57;90.35;97666.94;5087030;28;20051;-39
2020/12/29 00:04:16;;;;;;;3.22;1.73;;;1.40;99.90;;;-0.61;90.28;97677.25;5087180;28;20102;-39
2020/12/29 00:06:55;;;;;;;3.65;1.58;;;1.40;99.90;;;-0.68;90.33;97666.56;5053845;28;20055;-39
2020/12/29 00:09:26;;;;;;;3.45;1.42;;;1.30;99.90;;;-0.73;90.26;97672.59;5053931;28;20051;-40
2020/12/29 00:11:55;;;;;;;2.58;1.40;;;1.30;99.90;;;-0.74;90.73;97673.66;5037525;28;20040;-39
2020/12/29 00:14:25;;;;;;;3.67;1.60;;;1.30;99.90;;;-0.77;90.23;97676.75;5087094;28;20419;-41
2020/12/29 00:16:52;;;;;;;2.30;1.40;;;1.30;99.90;;;-0.83;89.72;97677.59;5053879;28;20052;-39
2020/12/29 00:19:24;;;;;;;3.05;1.80;;;1.20;99.90;;;-0.88;89.87;97678.25;5037619;28;20054;-39
2020/12/29 00:21:52;;;;;;;3.78;1.70;;;1.20;99.90;;;-0.92;89.36;97679.72;5070048;28;20048;-41
2020/12/29 00:24:20;;;;;;;3.17;1.83;;;1.10;99.90;;;-1.00;89.50;97677.28;5069949;28;20044;-40
2020/12/29 00:27:03;;;;;;;3.40;1.80;;;1.00;99.90;;;-1.09;89.38;97676.72;5055888;28;20060;-41
2020/12/29 00:29:32;;;;;;;2.85;1.63;;;1.00;99.90;;;-1.11;89.95;97675.31;5086881;28;20041;-40
2020/12/29 00:32:03;;;;;;;4.00;1.73;;;0.90;99.90;;;-1.17;89.46;97669.78;5037702;28;20524;-40
2020/12/29 00:34:30;;;;;;;3.67;1.85;;;0.90;99.90;;;-1.21;90.52;97675.75;5069824;28;20041;-41
2020/12/29 00:36:58;;;;;;;3.20;1.70;;;0.80;99.90;;;-1.22;89.99;97680.28;5037341;28;20422;-41
2020/12/29 00:39:25;;;;;;;2.50;1.30;;;0.80;99.90;;;-1.28;90.25;97666.97;5053516;28;20071;-40
2020/12/29 00:41:55;;;;;;;2.70;1.25;;;0.80;99.90;;;-1.25;90.58;97678.03;5037318;28;20044;-41
2020/12/29 00:44:25;;;;;;;2.78;1.40;;;0.80;99.90;;;-1.28;90.21;97681.13;5073735;28;20451;-40
2020/12/29 00:46:52;;;;;;;3.58;1.40;;;0.80;99.90;;;-1.29;91.15;97674.16;5057417;28;20048;-40
2020/12/29 00:49:21;;;;;;;3.55;1.50;;;0.80;99.90;;;-1.32;90.71;97680.75;5041361;28;20051;-41
2020/12/29 00:51:48;;;;;;;2.90;1.50;;;0.70;99.90;;;-1.35;90.42;97683.03;5024650;28;20473;-41
2020/12/29 00:54:18;;;;;;;2.95;1.55;;;0.70;99.90;;;-1.41;90.81;97674.00;5057815;28;20478;-41
2020/12/29 00:56:49;;;;;;;3.40;1.63;;;0.70;99.90;;;-1.44;90.58;97677.09;5026298;28;20049;-41
2020/12/29 00:59:17;;;;;;;3.20;1.58;;;0.60;99.90;;;-1.50;90.33;97678.75;5041100;28;20126;-40
2020/12/29 01:01:44;;;;;;;2.53;1.30;;;0.60;99.90;;;-1.55;90.53;97680.44;5057080;28;20036;-40
2020/12/29 01:04:23;;;;;;;3.05;1.42;;;0.60;99.90;;;-1.61;90.21;97682.91;5043128;28;20449;-40
2020/12/29 01:06:51;;;;;;;3.75;1.52;;;0.50;99.90;;;-1.67;90.21;97685.63;5056974;28;20114;-41
2020/12/29 01:09:23;;;;;;;3.65;1.58;;;0.40;99.90;;;-1.77;90.31;97688.72;5041974;28;20044;-40
2020/12/29 01:11:55;;;;;;;2.55;1.40;;;0.30;99.90;;;-1.83;90.23;97687.72;5042048;28;20110;-40
2020/12/29 01:14:23;;;;;;;;;;;0.30;99.90;;;-1.90;90.09;97685.03;5073840;28;20040;-41
2020/12/29 01:16:59;;;;;;;2.53;1.38;;;0.20;99.90;;;-1.94;89.58;97697.19;5043173;28;20022;-40
2020/12/29 01:19:26;;;;;;;2.70;1.17;;;0.20;99.90;;;-1.98;90.07;97692.47;5040516;28;20055;-41
2020/12/29 01:21:54;;;;;;;3.03;1.48;;;0.10;99.90;;;-2.03;90.22;97693.09;5040231;28;20116;-40
2020/12/29 01:24:21;;;;;;;3.15;1.50;;;0.10;99.90;;;-2.05;89.91;97693.28;5023778;28;20068;-41
2020/12/29 01:26:48;;;;;;;2.67;1.40;;;0.10;99.90;;;-2.09;90.16;97705.44;5023948;28;20040;-41
2020/12/29 01:29:16;;;;;;;3.80;1.70;;;0.00;99.90;;;-2.12;90.55;97703.16;5090246;28;20094;-41
2020/12/29 01:31:43;;;;;;;2.87;1.50;;;0.00;99.90;;;-2.17;90.82;97706.44;5007607;28;20448;-40
2020/12/29 01:34:10;;;;;;;4.30;1.80;;;-0.10;99.90;;;-2.19;90.32;97713.84;5007312;28;20098;-40
2020/12/29 01:36:38;;;;;;;;;;;-0.10;99.90;;;-2.20;90.36;97708.72;5040979;28;20486;-40
2020/12/29 01:39:06;;;;;;;4.00;1.70;;;-0.10;99.90;;;-2.26;90.10;97705.03;5040063;28;20344;-40
2020/12/29 01:41:35;;;;;;;4.07;1.52;;;-0.10;99.90;;;-2.31;90.31;97712.84;5072913;28;20503;-40
2020/12/29 01:44:22;;;;;;;3.28;1.42;;;-0.20;99.90;;;-2.37;90.25;97711.00;5072723;28;20041;-40
2020/12/29 01:46:54;;;;;;;3.40;1.45;;;-0.20;99.90;;;-2.40;90.96;97714.88;5073041;28;20506;-40
2020/12/29 01:49:21;;;;;;;3.35;1.77;;;-0.30;99.90;;;-2.42;91.17;97713.44;5056324;28;20043;-41
2020/12/29 01:51:49;;;;;;;3.53;1.85;;;-0.30;99.90;;;-2.43;90.25;97722.47;5023337;28;20047;-40
2020/12/29 01:54:16;;;;;;;3.40;1.60;;;-0.30;99.90;;;-2.44;91.01;97720.84;5023089;28;20048;-40
2020/12/29 01:56:44;;;;;;;2.80;1.67;;;-0.30;99.90;;;-2.45;91.47;97720.03;5072803;28;20052;-40
2020/12/29 01:59:13;;;;;;;5.00;2.03;;;-0.30;99.90;;;-2.46;91.12;97723.72;5039779;28;20077;-40
2020/12/29 02:01:44;;;;;;;2.72;1.50;;;-0.30;99.90;;;-2.49;91.67;97722.28;5039554;28;20059;-40
2020/12/29 02:04:13;;;;;;;2.97;1.30;;;-0.40;99.90;;;-2.51;91.72;97735.00;5072681;28;20411;-41
2020/12/29 02:06:41;;;;;;;3.35;1.92;;;-0.40;99.90;;;-2.52;91.64;97741.38;5056032;28;20044;-40
2020/12/29 02:09:09;;;;;;;3.42;1.70;;;-0.40;99.90;;;-2.52;92.04;97740.53;5055721;28;20032;-41
2020/12/29 02:11:38;;;;;;;2.33;1.40;;;-0.40;99.90;;;-2.56;92.00;97742.81;5039975;28;20052;-40
2020/12/29 02:14:08;;;;;;;4.50;1.75;;;-0.40;99.90;;;-2.62;91.42;97751.63;5055782;28;20583;-40
2020/12/29 02:16:38;;;;;;;3.25;1.60;;;-0.50;99.90;;;-2.68;91.91;97752.44;5023946;28;20060;-40
2020/12/29 02:19:07;;;;;;;2.80;1.58;;;-0.50;99.90;;;-2.74;90.93;97751.41;5072250;28;20056;-41
2020/12/29 02:21:38;;;;;;;2.92;1.70;;;-0.60;99.90;;;-2.80;91.08;97747.69;5072100;28;20056;-40
2020/12/29 02:24:07;;;;;;;3.17;1.58;;;-0.60;99.90;;;-2.87;91.16;97752.19;5072126;28;20102;-41
2020/12/29 02:26:35;;;;;;;3.05;1.70;;;-0.70;99.90;;;-2.90;90.57;97749.94;5073529;28;20433;-40
2020/12/29 02:29:06;;;;;;;3.10;1.48;;;-0.80;99.90;;;-2.93;90.49;97751.16;5055513;28;20041;-40
2020/12/29 02:31:34;;;;;;;2.63;1.67;;;-0.80;99.90;;;-2.89;90.57;97759.59;5055633;28;20041;-40
2020/12/29 02:34:01;;;;;;;3.78;1.70;;;-0.80;99.90;;;-2.92;90.72;97758.13;5055567;28;20115;-40
2020/12/29 02:36:28;;;;;;;3.50;1.80;;;-0.80;99.90;;;-2.93;90.74;97758.31;5055567;28;20036;-40
2020/12/29 02:38:56;;;;;;;3.17;1.60;;;-0.80;99.90;;;-2.95;91.57;97758.53;5039113;28;20540;-40
2020/12/29 02:41:23;;;;;;;2.80;1.70;;;-0.80;99.90;;;-2.94;91.33;97770.84;5022200;28;20044;-40
2020/12/29 02:43:51;;;;;;;2.40;1.52;;;-0.80;99.90;;;-2.95;91.69;97765.69;5038745;28;20070;-41
2020/12/29 02:46:18;;;;;;;3.22;1.33;;;-0.80;99.90;;;-3.00;91.53;97763.66;5022632;28;20098;-40
2020/12/29 02:48:46;;;;;;;3.33;1.70;;;-0.80;99.90;;;-3.00;91.27;97765.47;5038948;28;20120;-40
2020/12/29 02:51:14;;;;;;;;;;;-0.90;99.90;;;-3.04;91.81;97763.22;5039473;28;20032;-40
2020/12/29 02:53:42;;;;;;;3.03;1.55;;;-0.90;99.90;;;-3.06;90.89;97769.75;5054858;28;19970;-40
2020/12/29 02:56:10;;;;;;;3.92;1.70;;;-0.90;99.90;;;-3.08;91.59;97769.13;5022430;28;20403;-40
2020/12/29 02:58:37;;;;;;;;;;;-0.90;99.90;;;-3.12;90.90;97771.41;5039727;28;20032;-40
2020/12/29 03:01:05;;;;;;;2.63;1.70;;;-1.00;99.90;;;-3.12;91.52;97779.41;5054925;28;19920;-40
2020/12/29 03:03:32;;;;;;;5.88;1.90;;;-1.00;99.90;;;-3.13;91.16;97782.25;5022164;28;20044;-40
2020/12/29 03:06:00;;;;;;;3.47;1.70;;;-1.00;99.90;;;-3.11;91.84;97785.53;5037917;28;20033;-40
2020/12/29 03:08:27;;;;;;;2.97;1.70;;;-1.00;99.90;;;-3.13;92.03;97790.25;5055259;28;20040;-40
2020/12/29 03:10:55;;;;;;;2.30;1.35;;;-1.00;99.90;;;-3.15;91.68;97795.81;5071371;28;20418;-40
2020/12/29 03:13:22;;;;;;;3.38;1.83;;;-1.00;99.90;;;-3.15;92.23;97790.47;5021710;28;20048;-40
2020/12/29 03:15:50;;;;;;;2.95;1.45;;;-1.00;99.90;;;-3.21;91.62;97793.91;5022106;28;20045;-40
2020/12/29 03:18:17;;;;;;;4.47;1.90;;;-1.00;99.90;;;-3.24;91.63;97795.16;5021840;28;20522;-40
2020/12/29 03:20:44;;;;;;;3.17;1.70;;;-1.10;99.90;;;-3.25;92.04;97800.66;5021827;28;20481;-40
2020/12/29 03:23:12;;;;;;;3.50;1.80;;;-1.10;99.90;;;-3.26;91.70;97804.34;5021680;28;20044;-40
2020/12/29 03:25:39;;;;;;;3.20;1.70;;;-1.10;99.90;;;-3.32;91.17;97796.13;5037793;28;20064;-40
2020/12/29 03:28:06;;;;;;;3.63;1.70;;;-1.20;99.90;;;-3.30;91.75;97803.09;5038024;28;20036;-40
2020/12/29 03:30:34;;;;;;;4.88;2.00;;;-1.20;99.90;;;-3.35;91.44;97799.19;5038040;28;20048;-40
2020/12/29 03:33:02;;;;;;;3.05;1.73;;;-1.20;99.90;;;-3.36;90.94;97804.72;5038229;28;20113;-40
2020/12/29 03:35:29;;;;;;;2.80;1.85;;;-1.20;99.90;;;-3.40;91.51;97804.28;5037853;28;20040;-40
2020/12/29 03:37:56;;;;;;;3.33;1.67;;;-1.20;99.90;;;-3.43;91.45;97812.69;5021641;28;20051;-40
2020/12/29 03:40:24;;;;;;;3.92;2.03;;;-1.30;99.90;;;-3.45;91.19;97816.56;5005314;28;20068;-40
2020/12/29 03:42:51;;;;;;;3.20;1.85;;;-1.30;99.90;;;-3.54;90.67;97813.22;5005145;28;20041;-40
2020/12/29 03:45:19;;;;;;;3.88;1.80;;;-1.30;99.90;;;-3.54;90.67;97823.88;5021069;28;20044;-40
2020/12/29 03:47:47;;;;;;;3.90;2.10;;;-1.40;99.90;;;-3.55;91.27;97828.41;5005117;28;20040;-40
2020/12/29 03:50:14;;;;;;;5.07;1.83;;;-1.40;99.90;;;-3.52;91.29;97835.16;5054248;28;20065;-40
2020/12/29 03:52:41;;;;;;;2.63;1.50;;;-1.40;99.90;;;-3.54;91.50;97832.72;5070574;28;20052;-40
2020/12/29 03:55:09;;;;;;;3.28;1.88;;;-1.40;99.90;;;-3.55;91.93;97843.56;5037305;28;20139;-40
2020/12/29 03:57:37;;;;;;;3.60;1.75;;;-1.40;99.90;;;-3.53;92.01;97842.34;5053965;28;20060;-40
2020/12/29 04:00:06;;;;;;;3.05;1.55;;;-1.40;99.90;;;-3.55;91.58;97848.88;5070502;28;20045;-40
2020/12/29 04:02:38;;;;;;;3.78;1.90;;;-1.40;99.90;;;-3.58;91.67;97843.94;5070684;28;20041;-40
2020/12/29 04:05:06;;;;;;;4.53;2.03;;;-1.40;99.90;;;-3.58;91.27;97855.44;5004904;28;20460;-40
2020/12/29 04:07:34;;;;;;;3.20;1.70;;;-1.40;99.90;;;-3.64;91.41;97851.72;5005041;28;20039;-40
2020/12/29 04:10:01;;;;;;;2.90;1.67;;;-1.50;99.90;;;-3.67;91.13;97862.75;5037274;28;20464;-40
2020/12/29 04:12:29;;;;;;;3.25;1.60;;;-1.50;99.90;;;-3.68;91.35;97860.28;5054274;28;20068;-40
2020/12/29 04:14:56;;;;;;;4.32;1.88;;;-1.50;99.90;;;-3.69;91.13;97863.97;5004623;28;20478;-40
2020/12/29 04:17:24;;;;;;;5.18;1.95;;;-1.50;99.90;;;-3.70;91.18;97863.16;5053506;28;20045;-40
2020/12/29 04:19:51;;;;;;;;;;;-1.60;99.90;;;-3.72;91.87;97859.00;5037924;28;20066;-40
2020/12/29 04:22:19;;;;;;;5.65;1.70;;;-1.60;99.90;;;-3.72;91.70;97859.81;5053590;28;19951;-40
2020/12/29 04:24:46;;;;;;;3.50;2.20;;;-1.60;99.90;;;-3.75;91.89;97862.88;5037297;28;20040;-40
2020/12/29 04:27:14;;;;;;;2.90;1.42;;;-1.60;99.90;;;-3.81;91.29;97872.50;5053630;28;20041;-40
2020/12/29 04:29:41;;;;;;;3.15;1.65;;;-1.60;99.90;;;-3.83;91.29;97868.34;5021129;28;20102;-40
2020/12/29 04:32:10;;;;;;;5.05;1.95;;;-1.60;99.90;;;-3.87;91.47;97872.44;5004816;28;20044;-40
2020/12/29 04:34:38;;;;;;;3.55;1.80;;;-1.70;99.90;;;-3.87;91.21;97869.75;5038510;28;20522;-40
2020/12/29 04:37:08;;;;;;;4.57;2.17;;;-1.80;99.90;;;-3.91;91.46;97878.13;5038240;28;20044;-40
2020/12/29 04:39:35;;;;;;;4.13;2.17;;;-1.80;99.90;;;-3.91;91.60;97885.28;5020767;28;20044;-40
2020/12/29 04:42:11;;;;;;;4.05;1.90;;;-1.80;99.90;;;-3.91;91.45;97888.78;5020773;28;20568;-40
2020/12/29 04:44:40;;;;;;;3.88;2.10;;;-1.80;99.90;;;-3.93;91.83;97890.84;5069805;28;20076;-40
2020/12/29 04:47:11;;;;;;;4.18;1.92;;;-1.80;99.90;;;-3.99;91.56;97894.22;5053682;28;20526;-40
2020/12/29 04:49:40;;;;;;;5.95;1.77;;;-1.80;99.90;;;-4.00;91.43;97900.56;5053292;28;20576;-40
2020/12/29 04:52:09;;;;;;;3.85;2.00;;;-1.80;99.90;;;-3.99;91.99;97902.22;5069974;28;20090;-41
2020/12/29 04:54:41;;;;;;;3.60;1.88;;;-1.80;99.90;;;-4.00;91.83;97905.09;5020261;28;20059;-40
2020/12/29 04:57:10;;;;;;;2.92;1.40;;;-1.90;99.90;;;-3.98;91.97;97919.03;5086515;28;20075;-40
2020/12/29 04:59:38;;;;;;;3.05;1.50;;;-1.90;99.90;;;-4.01;92.15;97920.25;5069870;28;20427;-40
2020/12/29 05:02:05;;;;;;;2.72;1.30;;;-1.90;99.90;;;-4.02;92.29;97923.09;5053323;28;20037;-40
2020/12/29 05:04:33;;;;;;;3.05;1.48;;;-1.90;99.90;;;-4.08;92.38;97933.50;5036465;28;20085;-40
2020/12/29 05:07:00;;;;;;;3.47;1.45;;;-1.90;99.90;;;-4.11;92.35;97933.06;5004407;28;20048;-40
2020/12/29 05:09:28;;;;;;;2.70;1.48;;;-1.90;99.90;;;-4.15;92.15;97937.91;5036769;28;20510;-40
2020/12/29 05:11:55;;;;;;;1.92;1.10;;;-2.00;99.90;;;-4.14;92.36;97941.41;5020487;28;20124;-40
2020/12/29 05:14:24;;;;;;;2.70;1.40;;;-2.00;99.90;;;-4.14;92.65;97944.91;5052983;28;20086;-40
2020/12/29 05:16:51;;;;;;;;;;;-1.90;99.90;;;-4.16;92.24;97956.75;5053933;28;20037;-40
2020/12/29 05:19:21;;;;;;;2.25;1.30;;;-2.00;99.90;;;-4.19;92.21;97956.13;5036587;28;19956;-40
2020/12/29 05:21:51;;;;;;;2.85;1.63;;;-2.00;99.90;;;-4.19;92.50;97966.78;5052862;28;20075;-40
2020/12/29 05:24:23;;;;;;;2.58;1.40;;;-2.00;99.90;;;-4.17;92.54;97968.44;5052746;28;20040;-40
2020/12/29 05:26:54;;;;;;;3.28;1.70;;;-2.00;99.90;;;-4.15;92.45;97967.22;5036770;28;20045;-40
2020/12/29 05:29:25;;;;;;;3.47;1.45;;;-2.00;99.90;;;-4.19;92.08;97969.44;5054715;28;20573;-40
2020/12/29 05:31:54;;;;;;;5.00;1.60;;;-2.00;99.90;;;-4.23;92.04;97976.16;5073403;28;20064;-40
2020/12/29 05:34:25;;;;;;;2.50;1.35;;;-2.00;99.90;;;-4.26;91.64;97979.16;5056320;28;20071;-40
2020/12/29 05:36:55;;;;;;;3.03;1.35;;;-2.00;99.90;;;-4.28;91.01;97983.06;5040398;28;20041;-40
2020/12/29 05:39:27;;;;;;;2.47;1.45;;;-2.10;99.90;;;-4.27;91.79;97987.38;5073017;28;20049;-40
2020/12/29 05:41:57;;;;;;;4.47;1.70;;;-2.10;99.90;;;-4.30;91.68;97987.75;5073064;28;20502;-40
2020/12/29 05:44:27;;;;;;;2.00;1.30;;;-2.10;99.90;;;-4.33;91.63;97994.25;5072716;28;20036;-40
2020/12/29 05:46:57;;;;;;;2.83;1.65;;;-2.20;99.90;;;-4.36;91.32;97986.63;5089814;28;20098;-40
2020/12/29 05:49:26;;;;;;;2.95;1.70;;;-2.20;99.90;;;-4.38;91.08;97991.31;5056160;28;20048;-40
2020/12/29 05:51:57;;;;;;;3.55;1.70;;;-2.20;99.90;;;-4.40;91.13;97994.16;5089738;28;20036;-40
2020/12/29 05:54:27;;;;;;;4.97;1.80;;;-2.20;99.90;;;-4.38;91.15;97993.97;5072535;28;20040;-40
2020/12/29 05:56:55;;;;;;;4.18;1.75;;;-2.20;99.90;;;-4.40;91.08;97991.50;5072787;28;20094;-40
2020/12/29 05:59:27;;;;;;;3.40;1.80;;;-2.20;99.90;;;-4.41;91.10;97999.69;5072743;28;20032;-40
2020/12/29 06:01:54;;;;;;;3.38;1.70;;;-2.30;99.90;;;-4.41;91.24;98003.16;5089424;28;20105;-40
2020/12/29 06:04:21;;;;;;;4.28;1.98;;;-2.20;99.90;;;-4.42;91.33;98017.47;5039702;28;20063;-40
2020/12/29 06:06:50;;;;;;;3.70;1.60;;;-2.20;99.90;;;-4.40;91.41;98019.97;5039838;28;20044;-40
2020/12/29 06:09:20;;;;;;;5.75;1.83;;;-2.30;99.90;;;-4.39;91.84;98024.28;5039829;28;20033;-40
2020/12/29 06:11:49;;;;;;;3.72;1.85;;;-2.30;99.90;;;-4.40;91.40;98023.44;5055843;28;20391;-40
2020/12/29 06:14:24;;;;;;;3.47;1.85;;;-2.30;99.90;;;-4.41;91.25;98037.75;5072486;28;20558;-40
2020/12/29 06:16:54;;;;;;;3.00;1.70;;;-2.30;99.90;;;-4.42;91.12;98037.97;5073865;28;20040;-40
2020/12/29 06:19:32;;;;;;;4.43;2.00;;;-2.30;99.90;;;-4.41;91.28;98042.28;5039544;28;20568;-40
2020/12/29 06:22:12;;;;;;;2.78;1.42;;;-2.30;99.90;;;-4.40;91.14;98050.06;5072464;28;20077;-40
2020/12/29 06:24:48;;;;;;;4.13;1.92;;;-2.30;99.90;;;-4.43;90.93;98060.25;5088696;28;20086;-40
2020/12/29 06:27:16;;;;;;;5.78;1.90;;;-2.20;99.90;;;-4.47;90.81;98057.13;5072656;28;20045;-40
2020/12/29 06:29:45;;;;;;;4.03;2.00;;;-2.30;99.90;;;-4.53;90.51;98056.03;5055928;28;20040;-40
2020/12/29 06:32:17;;;;;;;3.10;1.75;;;-2.30;99.90;;;-4.55;90.80;98066.03;5055421;28;20127;-40
2020/12/29 06:34:46;;;;;;;3.45;1.90;;;-2.40;99.90;;;-4.58;90.67;98061.06;5072019;28;20418;-40
2020/12/29 06:37:26;;;;;;;4.80;1.95;;;-2.40;99.90;;;-4.59;90.66;98070.06;5055404;28;20484;-40
2020/12/29 06:39:59;;;;;;;3.22;1.98;;;-2.40;99.90;;;-4.60;90.64;98075.59;5072105;28;20136;-41
2020/12/29 06:42:28;;;;;;;4.70;2.20;;;-2.40;99.90;;;-4.61;90.79;98085.41;5072021;28;20131;-40
2020/12/29 06:44:58;;;;;;;3.42;2.00;;;-2.40;99.90;;;-4.58;nan;98095.66;5071719;28;20041;-41
2020/12/29 06:47:28;;;;;;;5.30;2.10;;;-2.40;99.90;;;-4.55;91.02;98100.63;5071711;28;20044;-40
2020/12/29 06:49:56;;;;;;;4.70;2.75;;;-2.40;99.90;;;-4.53;91.47;98108.44;5071780;28;20415;-40
2020/12/29 06:52:25;;;;;;;5.32;2.55;;;-2.40;99.90;;;-4.46;91.48;98121.88;5038651;28;20040;-40
2020/12/29 06:54:58;;;;;;;7.63;3.03;;;-2.40;99.90;;;-4.37;91.90;98118.09;5088197;28;20045;-40
2020/12/29 06:57:38;;;;;;;4.90;2.20;;;-2.30;99.90;;;-4.32;91.65;98121.03;5054996;28;20044;-40
2020/12/29 07:00:16;;;;;;;6.25;2.30;;;-2.20;99.90;;;-4.29;92.02;98133.16;5071372;28;20044;-40
2020/12/29 07:02:48;;;;;;;7.23;2.13;;;-2.20;99.90;;;-4.25;92.31;98132.59;5055102;28;20040;-40
2020/12/29 07:05:21;;;;;;;4.18;2.38;;;-2.20;99.90;;;-4.23;91.78;98127.94;5054892;28;20037;-40
2020/12/29 07:08:07;;;;;;;5.68;2.30;;;-2.10;99.90;;;-4.22;92.34;98142.06;5055094;28;20040;-41
2020/12/29 07:10:46;;;;;;;4.80;2.60;;;-2.10;99.90;;;-4.23;91.78;98146.59;5054978;28;20510;-40
2020/12/29 07:13:16;;;;;;;;;;;-2.10;99.90;;;-4.20;91.73;98145.38;5072150;28;20052;-40
2020/12/29 07:15:54;;;;;;;5.82;2.88;;;-2.10;99.90;;;-4.13;91.99;98145.47;5054874;28;19927;-40
2020/12/29 07:18:26;;;;;;;6.32;3.17;;;-2.10;99.90;;;-4.04;91.96;98155.00;5072631;28;20110;-40
2020/12/29 07:20:57;;;;;;;7.75;4.43;;;-2.00;99.90;;;-3.90;92.34;98166.69;5054335;28;20132;-40
2020/12/29 07:23:34;;;;;;;9.43;4.80;;;-1.90;99.90;;;-3.73;93.32;98169.16;5054145;28;20132;-40
2020/12/29 07:26:02;;;;;;;10.05;4.85;;;-1.70;99.90;;;-3.57;93.31;98173.47;5071168;28;20045;-40
2020/12/29 07:28:30;;;;;;;;;;;-1.60;99.90;;;-3.36;94.06;98178.00;5039188;28;20036;-40
2020/12/29 07:30:57;;;;;;;8.23;5.03;;;-1.50;99.90;;;-3.20;94.25;98175.13;5071109;28;19973;-40
2020/12/29 07:33:26;;;;;;;10.77;5.40;;;-1.30;99.90;;;-3.05;94.69;98183.09;5037965;28;20463;-41
2020/12/29 07:35:54;;;;;;;12.27;5.03;;;-1.10;99.90;;;-2.95;94.54;98187.28;5071246;28;20048;-40
2020/12/29 07:38:25;;;;;;;18.20;5.32;;;-1.00;99.90;;;-2.85;95.40;98187.81;5054204;28;20124;-40
2020/12/29 07:40:54;;;;;;;12.90;5.63;;;-0.90;99.90;;;-2.80;95.62;98198.72;5072155;28;20461;-40
2020/12/29 07:43:21;;;;;;;9.70;5.93;;;-0.80;99.90;;;-2.71;95.07;98202.09;5070754;28;20043;-40
2020/12/29 07:45:48;;;;;;;12.00;6.03;;;-0.80;99.90;;;-2.64;95.19;98218.19;5070658;28;20037;-40
2020/12/29 07:48:15;;;;;;;10.73;6.03;;;-0.70;99.90;;;-2.62;95.90;98205.47;5054258;28;21009;-40
2020/12/29 07:50:42;;;;;;;10.85;5.53;;;-0.70;99.90;;;-2.63;95.46;98209.97;5054373;28;20041;-40
2020/12/29 07:53:12;;;;;;;12.60;5.32;;;-0.70;99.90;;;-2.66;95.97;98217.53;5021028;28;20632;-40
2020/12/29 07:55:43;;;;;;;12.25;5.60;;;-0.60;99.90;;;-2.67;96.15;98221.22;5087394;28;20055;-41
2020/12/29 07:58:10;;;;;;;10.30;5.60;;;-0.70;99.90;;;-2.67;96.14;98227.41;5071860;28;20102;-40
2020/12/29 08:00:40;;;;;;;8.30;5.67;;;-0.70;99.90;;;-2.62;95.49;98232.97;5053965;28;20051;-41
2020/12/29 08:03:09;;;;;;;9.57;5.75;;;-0.60;99.90;;;-2.58;95.42;98238.78;5087212;28;20584;-40
2020/12/29 08:05:38;;;;;;;10.93;5.35;;;-0.60;99.90;;;-2.54;96.00;98248.06;5070233;28;20044;-40
2020/12/29 08:08:08;;;;;;;12.10;6.47;;;-0.60;99.90;;;-2.40;96.38;98250.84;5038017;28;20042;-40
2020/12/29 08:10:39;;;;;;;14.52;6.03;;;-0.50;99.90;;;-2.21;95.72;98260.06;5070313;28;20044;-40
2020/12/29 08:13:13;;;;;;;10.43;6.30;;;-0.40;99.90;;;-2.09;95.85;98271.06;5053631;28;20052;-40
2020/12/29 08:15:43;;;;;;;10.95;5.38;;;-0.20;99.90;;;-1.95;96.60;98266.63;5071743;28;20102;-40
2020/12/29 08:18:21;;;;;;;9.90;5.63;;;-0.10;99.90;;;-1.91;96.84;98273.25;5070654;28;20075;-40
2020/12/29 08:20:58;;;;;;;12.88;5.53;;;0.00;99.90;;;-1.95;96.69;98280.81;5070189;28;20044;-40
2020/12/29 08:23:28;;;;;;;12.93;6.40;;;0.00;99.90;;;-1.93;95.67;98281.44;5070009;28;20110;-40
2020/12/29 08:25:59;;;;;;;9.40;5.35;;;0.00;99.90;;;-1.93;96.61;98285.97;5087495;28;20075;-40
2020/12/29 08:28:30;;;;;;;11.88;5.65;;;0.00;99.90;;;-1.93;95.71;98291.31;5087265;28;20055;-40
2020/12/29 08:31:02;;;;;;;15.00;6.53;;;0.00;99.90;;;-1.94;96.54;98297.69;5071466;28;20461;-40
2020/12/29 08:33:31;;;;;;;12.45;6.57;;;0.00;99.90;;;-1.94;96.25;98303.84;5071360;28;20056;-41
2020/12/29 08:36:10;;;;;;;11.82;5.68;;;0.00;99.90;;;-1.85;96.74;98306.41;5069979;28;20044;-41
2020/12/29 08:39:03;;;;;;;13.55;6.80;;;0.00;99.90;;;-1.81;95.82;98313.00;5086919;28;20052;-42
2020/12/29 08:41:41;;;;;;;11.57;6.55;;;0.10;99.90;;;-1.77;96.08;98308.94;5070359;28;20473;-41
2020/12/29 08:44:09;;;;;;;12.33;6.40;;;0.10;99.90;;;-1.74;95.69;98316.56;5086585;28;20388;-40
2020/12/29 08:46:36;;;;;;;12.43;5.97;;;0.20;99.90;;;-1.72;96.08;98317.19;5053736;28;20037;-41
2020/12/29 08:49:07;;;;;;;12.30;6.30;;;0.20;99.90;;;-1.71;95.85;98318.03;5071601;28;20044;-40
2020/12/29 08:51:41;;;;;;;10.95;6.35;;;0.30;99.90;;;-1.68;96.06;98331.81;5037076;28;20037;-41
2020/12/29 08:54:14;;;;;;;12.40;6.28;;;0.20;99.90;;;-1.64;96.37;98333.06;5070111;28;20506;-41
2020/12/29 08:56:43;;;;;;;11.88;6.25;;;0.30;99.90;;;-1.63;96.10;98345.41;5054098;28;20459;-41
2020/12/29 08:59:21;;;;;;;12.93;6.18;;;0.30;99.90;;;-1.54;96.39;98350.66;5069907;28;20105;-41
2020/12/29 09:01:57;;;;;;;11.27;6.70;;;0.40;99.90;;;-1.48;96.41;98348.00;5070017;28;20080;-40
2020/12/29 09:04:36;;;;;;;12.95;6.60;;;0.40;99.90;;;-1.41;96.31;98356.06;5072829;28;20056;-41
2020/12/29 09:07:15;;;;;;;13.35;7.28;;;0.40;99.90;;;-1.35;96.29;98357.16;5073747;28;20550;-41
2020/12/29 09:09:52;;;;;;;12.77;6.45;;;0.50;99.90;;;-1.23;96.01;98362.78;5057049;28;20052;-41
2020/12/29 09:12:23;;;;;;;12.07;6.43;;;0.60;99.90;;;-1.17;96.34;98375.38;5057453;28;20055;-40
2020/12/29 09:14:54;;;;;;;12.32;6.68;;;0.70;99.90;;;-1.08;95.78;98376.84;5090166;28;20530;-41
2020/12/29 09:17:25;;;;;;;11.88;6.53;;;0.70;99.90;;;-1.04;95.58;98378.16;5074784;28;20061;-41
2020/12/29 09:20:22;;;;;;;15.30;6.85;;;0.80;99.90;;;-0.96;96.22;98384.34;5090121;28;20105;-41
2020/12/29 09:22:55;;;;;;;14.88;6.18;;;0.80;99.90;;;-0.86;95.51;98387.47;5074701;28;20040;-41
2020/12/29 09:25:42;;;;;;;16.70;5.90;;;1.00;99.90;;;-0.76;95.68;98406.72;5073456;28;20043;-41
2020/12/29 09:28:24;;;;;;;12.13;6.10;;;1.00;99.90;;;-0.67;95.38;98402.00;5090174;28;20117;-41
2020/12/29 09:31:07;;;;;;;10.38;5.68;;;1.10;99.90;;;-0.58;94.85;98408.00;5090406;28;20064;-41
2020/12/29 09:33:38;;;;;;;10.55;6.00;;;1.20;99.90;;;-0.51;94.93;98405.38;5073086;28;20094;-41
2020/12/29 09:36:29;;;;;;;13.52;6.22;;;1.30;99.90;;;-0.43;94.86;98410.53;5057289;28;20143;-40
2020/12/29 09:38:57;;;;;;;12.55;6.20;;;1.40;99.90;;;-0.33;95.10;98415.53;5073131;28;20068;-40
2020/12/29 09:41:24;;;;;;;12.93;6.18;;;1.50;99.90;;;-0.27;94.49;98404.00;5073326;28;20044;-40
2020/12/29 09:43:52;;;;;;;13.88;6.30;;;1.50;99.90;;;-0.24;94.47;98408.16;5056174;28;20040;-40
2020/12/29 09:46:19;;;;;;;10.10;5.65;;;1.60;99.90;;;-0.12;94.53;98417.25;5073198;28;20491;-40
2020/12/29 09:48:46;;;;;;;10.35;5.72;;;1.70;99.90;;;0.02;94.28;98420.81;5056492;28;20036;-40
2020/12/29 09:51:13;;;;;;;13.45;6.47;;;1.80;99.90;;;0.08;93.78;98416.47;5072822;28;20044;-40
2020/12/29 09:53:40;;;;;;;12.30;5.55;;;1.90;99.90;;;0.18;93.04;98427.66;5039825;28;20103;-40
2020/12/29 09:56:07;;;;;;;12.35;5.65;;;2.00;99.90;;;0.26;92.71;98435.47;5072774;28;20132;-40
2020/12/29 09:58:34;;;;;;;12.60;6.03;;;2.00;99.90;;;0.30;92.16;98433.22;5056433;28;20071;-41
2020/12/29 10:01:01;;;;;;;12.45;5.70;;;2.10;99.90;;;0.36;91.69;98443.13;5056224;28;20041;-41
2020/12/29 10:03:31;;;;;;;11.45;5.80;;;2.10;99.90;;;0.40;92.39;98451.63;5056179;28;20047;-41
2020/12/29 10:05:58;;;;;;;14.50;6.13;;;2.20;99.90;;;0.41;91.87;98454.06;5074109;28;20041;-40
2020/12/29 10:08:25;;;;;;;15.02;6.47;;;2.20;99.90;;;0.44;92.06;98458.22;5056415;28;20041;-40
2020/12/29 10:10:52;;;;;;;12.75;6.30;;;2.30;99.90;;;0.55;91.79;98472.88;5055914;28;20562;-40
2020/12/29 10:13:20;;;;;;;11.80;6.25;;;2.30;99.90;;;0.58;91.60;98483.22;5055816;28;20139;-40
2020/12/29 10:15:50;;;;;;;13.95;6.13;;;2.40;99.90;;;0.62;92.17;98489.81;5072445;28;20056;-40
2020/12/29 10:18:17;;;;;;;13.95;6.13;;;2.40;99.90;;;0.68;91.48;98488.19;5056160;28;20474;-40
2020/12/29 10:20:44;;;;;;;15.38;6.50;;;2.50;99.90;;;0.68;91.37;98490.88;5072606;28;20518;-40
2020/12/29 10:23:11;;;;;;;15.98;7.18;;;2.50;99.90;;;0.67;91.58;98487.34;5039535;28;20040;-40
2020/12/29 10:25:39;;;;;;;11.70;6.13;;;2.50;99.90;;;0.74;91.74;98489.19;5055632;28;20515;-40
2020/12/29 10:28:06;;;;;;;16.38;7.28;;;2.50;99.90;;;0.80;91.42;98493.75;5072554;28;20051;-40
2020/12/29 10:30:33;;;;;;;14.38;7.22;;;2.60;99.90;;;0.88;91.41;98493.53;5072120;28;20056;-40
2020/12/29 10:33:01;;;;;;;14.68;6.35;;;2.60;99.90;;;0.89;91.31;98491.66;5057192;28;20060;-40
2020/12/29 10:35:28;;;;;;;13.90;6.60;;;2.60;99.90;;;0.92;91.23;98489.41;5055736;28;20048;-40